createdAt,value
2023-05-09T00:02:14.402Z,40.10
2023-05-09T00:04:41.664Z,39.40
2023-05-09T00:07:10.636Z,39.40
2023-05-09T00:09:38.475Z,40.60
2023-05-09T00:12:06.048Z,39.50
2023-05-09T00:14:33.638Z,40.10
2023-05-09T00:17:00.771Z,40.00
2023-05-09T00:19:27.871Z,40.10
2023-05-09T00:21:54.865Z,40.10
2023-05-09T00:24:21.986Z,40.10
2023-05-09T00:26:49.035Z,39.50
2023-05-09T00:29:15.983Z,40.10
2023-05-09T00:31:42.876Z,40.10
2023-05-09T00:34:09.868Z,40.40
2023-05-09T00:36:37.189Z,40.10
2023-05-09T00:39:05.534Z,40.10
2023-05-09T00:41:34.349Z,39.50
2023-05-09T00:44:01.506Z,40.20
2023-05-09T00:46:28.612Z,40.10
2023-05-09T00:48:56.542Z,40.10
2023-05-09T00:51:27.513Z,40.10
2023-05-09T00:53:54.700Z,40.10
2023-05-09T00:56:22.117Z,39.60
2023-05-09T00:58:49.844Z,39.60
2023-05-09T01:01:17.252Z,40.10
2023-05-09T01:03:45.706Z,40.10
2023-05-09T01:06:57.241Z,40.20
2023-05-09T01:09:51.937Z,40.20
2023-05-09T01:12:33.764Z,40.80
2023-05-09T01:15:36.485Z,40.20
2023-05-09T01:18:25.816Z,40.20
2023-05-09T01:21:00.549Z,40.20
2023-05-09T01:23:45.571Z,39.60
2023-05-09T01:26:37.608Z,39.60
2023-05-09T01:29:42.374Z,40.30
2023-05-09T01:32:19.369Z,40.30
2023-05-09T01:34:49.722Z,40.20
2023-05-09T01:37:22.264Z,40.80
2023-05-09T01:39:53.898Z,39.60
2023-05-09T01:42:22.923Z,40.30
2023-05-09T01:44:51.081Z,40.20
2023-05-09T01:47:20.093Z,40.20
2023-05-09T01:49:49.101Z,39.70
2023-05-09T01:52:20.039Z,39.70
2023-05-09T01:54:49.273Z,39.70
2023-05-09T01:57:19.382Z,40.30
2023-05-09T01:59:47.576Z,40.30
2023-05-09T02:02:15.631Z,39.80
2023-05-09T02:04:45.318Z,40.30
2023-05-09T02:07:15.202Z,40.30
2023-05-09T02:09:42.215Z,39.80
2023-05-09T02:12:09.214Z,39.70
2023-05-09T02:14:36.378Z,40.30
2023-05-09T02:17:06.483Z,40.30
2023-05-09T02:19:35.831Z,39.70
2023-05-09T02:22:05.250Z,40.40
2023-05-09T02:24:36.565Z,39.70
2023-05-09T02:27:05.357Z,39.80
2023-05-09T02:29:40.584Z,39.70
2023-05-09T02:32:14.564Z,40.30
2023-05-09T02:34:43.906Z,40.40
2023-05-09T02:37:12.494Z,39.80
2023-05-09T02:39:39.860Z,40.30
2023-05-09T02:44:39.232Z,39.80
2023-05-09T02:47:07.551Z,40.40
2023-05-09T02:49:34.866Z,40.40
2023-05-09T02:52:02.100Z,40.40
2023-05-09T02:54:29.663Z,39.70
2023-05-09T02:56:57.547Z,39.90
2023-05-09T02:59:24.744Z,39.80
2023-05-09T03:01:52.002Z,39.80
2023-05-09T03:04:19.840Z,39.80
2023-05-09T03:06:46.870Z,39.80
2023-05-09T03:09:14.052Z,40.40
2023-05-09T03:11:40.992Z,39.80
2023-05-09T03:14:13.199Z,40.40
2023-05-09T03:16:40.396Z,39.90
2023-05-09T03:19:07.625Z,40.40
2023-05-09T03:21:34.614Z,41.00
2023-05-09T03:24:02.038Z,40.40
2023-05-09T03:26:29.048Z,39.90
2023-05-09T03:28:55.992Z,39.90
2023-05-09T03:31:23.158Z,39.90
2023-05-09T03:33:50.176Z,41.10
2023-05-09T03:36:17.401Z,40.40
2023-05-09T03:38:44.459Z,40.40
2023-05-09T03:41:15.121Z,40.50
2023-05-09T03:43:42.220Z,39.90
2023-05-09T03:46:09.345Z,39.90
2023-05-09T03:48:36.419Z,39.90
2023-05-09T03:51:05.016Z,40.50
2023-05-09T03:53:32.048Z,39.90
2023-05-09T03:55:59.120Z,40.40
2023-05-09T03:58:26.528Z,40.50
2023-05-09T04:00:53.730Z,39.90
2023-05-09T04:03:20.915Z,40.50
2023-05-09T04:05:48.322Z,40.40
2023-05-09T04:08:15.565Z,40.50
2023-05-09T04:15:40.550Z,40.00
2023-05-09T04:18:07.755Z,40.50
2023-05-09T04:20:34.983Z,40.50
2023-05-09T04:23:02.248Z,39.90
2023-05-09T04:25:31.168Z,40.10
2023-05-09T04:27:58.401Z,40.00
2023-05-09T04:30:27.214Z,40.50
2023-05-09T04:32:55.600Z,40.00
2023-05-09T04:35:23.090Z,40.00
2023-05-09T04:37:51.895Z,39.90
2023-05-09T04:40:19.258Z,40.50
2023-05-09T04:42:46.429Z,40.60
2023-05-09T04:45:13.790Z,40.50
2023-05-09T04:47:41.227Z,40.00
2023-05-09T04:50:09.251Z,40.00
2023-05-09T04:52:36.223Z,40.50
2023-05-09T04:55:03.613Z,40.00
2023-05-09T04:57:31.295Z,40.00
2023-05-09T04:59:58.639Z,40.00
2023-05-09T05:02:25.862Z,40.00
2023-05-09T05:04:57.974Z,40.00
2023-05-09T05:09:58.021Z,39.80
2023-05-09T05:12:25.042Z,40.10
2023-05-09T05:14:52.167Z,40.50
2023-05-09T05:17:19.225Z,40.00
2023-05-09T05:19:46.395Z,39.90
2023-05-09T05:22:13.533Z,40.50
2023-05-09T05:24:40.801Z,40.00
2023-05-09T05:27:07.994Z,40.50
2023-05-09T05:29:35.030Z,40.50
2023-05-09T05:32:02.268Z,40.10
2023-05-09T05:34:29.199Z,40.50
2023-05-09T05:36:56.460Z,40.60
2023-05-09T05:39:23.653Z,40.10
2023-05-09T05:41:52.166Z,40.10
2023-05-09T05:44:19.626Z,40.20
2023-05-09T05:49:14.133Z,40.20
2023-05-09T05:51:41.312Z,40.40
2023-05-09T05:56:36.130Z,40.40
2023-05-09T06:01:32.375Z,40.50
2023-05-09T06:03:59.890Z,40.50
2023-05-09T06:06:28.259Z,40.50
2023-05-09T06:08:55.653Z,40.50
2023-05-09T06:13:50.776Z,40.50
2023-05-09T06:18:48.528Z,40.50
2023-05-09T06:21:15.835Z,40.60
2023-05-09T06:23:51.086Z,40.50
2023-05-09T06:26:29.476Z,40.50
2023-05-09T06:28:56.582Z,40.50
2023-05-09T06:31:25.378Z,40.50
2023-05-09T06:33:53.123Z,40.40
2023-05-09T06:36:20.395Z,40.90
2023-05-09T06:38:47.646Z,40.90
2023-05-09T06:41:14.894Z,40.90
2023-05-09T06:43:41.763Z,40.30
2023-05-09T06:46:08.931Z,40.20
2023-05-09T06:51:03.475Z,40.10
2023-05-09T06:53:33.410Z,40.10
2023-05-09T06:56:00.846Z,40.00
2023-05-09T06:58:28.756Z,40.60
2023-05-09T07:00:56.303Z,40.00
2023-05-09T07:03:23.494Z,40.60
2023-05-09T07:08:20.752Z,40.00
2023-05-09T07:10:47.828Z,39.90
2023-05-09T07:13:15.042Z,39.90
2023-05-09T07:18:10.800Z,39.80
2023-05-09T07:20:38.358Z,39.80
2023-05-09T07:23:06.275Z,39.80
2023-05-09T07:25:35.051Z,39.80
2023-05-09T07:28:02.353Z,39.80
2023-05-09T07:30:29.420Z,39.80
2023-05-09T07:32:56.753Z,39.80
2023-05-09T07:35:24.036Z,39.80
2023-05-09T07:37:51.425Z,39.80
2023-05-09T07:40:20.736Z,40.40
2023-05-09T07:42:50.156Z,40.40
2023-05-09T07:45:19.011Z,40.00
2023-05-09T07:47:47.794Z,39.80
2023-05-09T07:50:14.911Z,40.00
2023-05-09T07:52:41.987Z,39.90
2023-05-09T07:55:10.014Z,39.90
2023-05-09T07:57:37.177Z,40.00
2023-05-09T08:00:09.295Z,40.00
2023-05-09T08:02:36.541Z,40.10
2023-05-09T08:05:04.150Z,40.00
2023-05-09T08:07:31.415Z,40.00
2023-05-09T08:09:58.538Z,40.00
2023-05-09T08:12:25.724Z,40.00
2023-05-09T08:14:52.666Z,40.60
2023-05-09T08:17:19.831Z,40.10
2023-05-09T08:19:46.931Z,40.60
2023-05-09T08:22:20.780Z,40.00
2023-05-09T08:24:48.575Z,40.00
2023-05-09T08:27:15.979Z,40.00
2023-05-09T08:29:44.029Z,40.50
2023-05-09T08:32:11.460Z,39.90
2023-05-09T08:37:06.302Z,39.90
2023-05-09T08:39:35.276Z,39.90
2023-05-09T08:42:04.219Z,39.90
2023-05-09T08:44:32.273Z,40.40
2023-05-09T08:47:04.494Z,39.90
2023-05-09T08:49:32.052Z,40.50
2023-05-09T08:52:00.267Z,40.00
2023-05-09T08:54:28.843Z,40.00
2023-05-09T08:56:56.312Z,40.10
2023-05-09T08:59:24.442Z,40.20
2023-05-09T09:01:53.910Z,40.20
2023-05-09T09:04:22.571Z,40.20
2023-05-09T09:06:50.906Z,40.20
2023-05-09T09:09:20.354Z,40.20
2023-05-09T09:11:48.189Z,40.20
2023-05-09T09:14:27.747Z,40.10
2023-05-09T09:16:57.524Z,40.60
2023-05-09T09:19:31.519Z,40.60
2023-05-09T09:22:05.067Z,40.00
2023-05-09T09:24:32.462Z,39.80
2023-05-09T09:27:08.534Z,40.50
2023-05-09T09:29:36.288Z,39.90
2023-05-09T09:32:07.054Z,39.80
2023-05-09T09:34:34.173Z,39.80
2023-05-09T09:37:01.299Z,39.80
2023-05-09T09:39:28.362Z,39.70
2023-05-09T09:41:55.645Z,40.20
2023-05-09T09:44:23.521Z,40.20
2023-05-09T09:46:55.727Z,39.60
2023-05-09T09:49:25.211Z,39.60
2023-05-09T09:51:56.545Z,39.50
2023-05-09T09:54:27.540Z,40.10
2023-05-09T09:56:57.107Z,39.50
2023-05-09T09:59:26.753Z,40.00
2023-05-09T10:02:07.675Z,39.50
2023-05-09T10:04:37.798Z,39.50
2023-05-09T10:07:13.557Z,39.40
2023-05-09T10:09:43.869Z,39.40
2023-05-09T10:12:14.513Z,39.30
2023-05-09T10:14:43.453Z,39.40
2023-05-09T10:17:15.227Z,39.80
2023-05-09T10:19:46.599Z,39.20
2023-05-09T10:22:17.972Z,39.10
2023-05-09T10:24:49.495Z,39.10
2023-05-09T10:27:26.028Z,39.00
2023-05-09T10:30:12.208Z,39.00
2023-05-09T10:32:58.294Z,39.00
2023-05-09T10:35:37.040Z,38.90
2023-05-09T10:38:04.526Z,38.80
2023-05-09T10:40:34.063Z,39.00
2023-05-09T10:43:01.734Z,39.20
2023-05-09T10:45:29.233Z,39.10
2023-05-09T10:47:57.149Z,39.70
2023-05-09T10:50:26.019Z,39.30
2023-05-09T10:53:08.294Z,39.40
2023-05-09T10:55:59.164Z,39.50
2023-05-09T10:58:27.481Z,39.90
2023-05-09T11:03:27.790Z,39.50
2023-05-09T11:05:59.171Z,39.50
2023-05-09T11:08:29.470Z,40.00
2023-05-09T11:11:00.733Z,39.50
2023-05-09T11:13:33.428Z,40.10
2023-05-09T11:16:03.672Z,39.50
2023-05-09T11:18:33.314Z,39.50
2023-05-09T11:21:09.597Z,39.50
2023-05-09T11:23:39.416Z,39.50
2023-05-09T11:26:09.104Z,39.40
2023-05-09T11:28:38.888Z,39.50
2023-05-09T11:31:18.237Z,39.40
2023-05-09T11:33:49.591Z,39.40
2023-05-09T11:36:32.456Z,39.30
2023-05-09T11:39:09.682Z,39.90
2023-05-09T11:41:47.024Z,39.40
2023-05-09T11:44:20.766Z,39.80
2023-05-09T11:46:49.815Z,39.30
2023-05-09T11:49:18.061Z,39.40
2023-05-09T11:51:45.478Z,39.40
2023-05-09T11:54:14.941Z,39.30
2023-05-09T11:56:42.659Z,39.30
2023-05-09T11:59:13.165Z,39.30
2023-05-09T12:01:40.677Z,39.20
2023-05-09T12:04:09.046Z,39.80
2023-05-09T12:06:38.002Z,39.40
2023-05-09T12:09:05.470Z,39.80
2023-05-09T12:11:32.757Z,39.30
2023-05-09T12:14:00.435Z,39.30
2023-05-09T12:16:27.537Z,39.60
2023-05-09T12:18:55.117Z,39.20
2023-05-09T12:21:22.915Z,39.00
2023-05-09T12:23:52.572Z,38.80
2023-05-09T12:26:22.855Z,38.70
2023-05-09T12:28:52.196Z,38.70
2023-05-09T12:31:20.728Z,38.60
2023-05-09T12:33:48.599Z,38.70
2023-05-09T12:36:16.732Z,38.50
2023-05-09T12:38:55.597Z,38.40
2023-05-09T12:46:23.392Z,38.30
2023-05-09T12:48:50.745Z,38.20
2023-05-09T12:51:22.513Z,38.40
2023-05-09T12:53:50.114Z,38.30
2023-05-09T12:56:25.445Z,38.30
2023-05-09T12:58:56.248Z,38.40
2023-05-09T13:01:29.433Z,38.20
2023-05-09T13:04:06.449Z,38.30
2023-05-09T13:06:34.766Z,38.30
2023-05-09T13:09:06.461Z,38.80
2023-05-09T13:11:33.868Z,38.20
2023-05-09T13:14:03.245Z,38.80
2023-05-09T13:16:30.451Z,38.70
2023-05-09T13:18:57.752Z,38.10
2023-05-09T13:21:24.766Z,38.60
2023-05-09T13:23:52.239Z,38.50
2023-05-09T13:26:19.743Z,37.90
2023-05-09T13:31:15.874Z,37.80
2023-05-09T13:33:42.951Z,37.80
2023-05-09T13:36:10.783Z,37.80
2023-05-09T13:38:40.759Z,37.90
2023-05-09T13:41:09.845Z,37.70
2023-05-09T13:43:39.182Z,37.90
2023-05-09T13:46:06.639Z,37.90
2023-05-09T13:48:34.025Z,37.90
2023-05-09T13:51:01.483Z,37.90
2023-05-09T13:53:28.949Z,38.40
2023-05-09T13:55:57.079Z,38.00
2023-05-09T13:58:24.525Z,37.90
2023-05-09T14:00:51.617Z,37.90
2023-05-09T14:03:23.053Z,38.00
2023-05-09T14:05:51.100Z,38.50
2023-05-09T14:08:18.254Z,38.00
2023-05-09T14:10:45.423Z,38.00
2023-05-09T14:13:12.837Z,38.60
2023-05-09T14:15:40.687Z,38.10
2023-05-09T14:18:07.808Z,38.30
2023-05-09T14:20:34.970Z,38.30
2023-05-09T14:23:02.093Z,38.30
2023-05-09T14:25:29.732Z,38.30
2023-05-09T14:27:56.641Z,38.30
2023-05-09T14:30:25.689Z,38.30
2023-05-09T14:32:53.130Z,38.30
2023-05-09T14:35:21.075Z,38.30
2023-05-09T14:37:48.372Z,38.30
2023-05-09T14:40:16.387Z,38.40
2023-05-09T14:42:44.233Z,38.40
2023-05-09T14:45:13.316Z,38.50
2023-05-09T14:47:43.502Z,38.50
2023-05-09T14:50:15.914Z,38.40
2023-05-09T14:52:48.414Z,38.60
2023-05-09T14:55:17.003Z,38.60
2023-05-09T14:57:44.377Z,38.80
2023-05-09T15:00:21.168Z,38.90
2023-05-09T15:05:18.377Z,39.10
2023-05-09T15:07:46.409Z,39.00
2023-05-09T15:10:14.245Z,39.00
2023-05-09T15:15:23.386Z,39.20
2023-05-09T15:17:51.422Z,39.10
2023-05-09T15:20:19.750Z,39.30
2023-05-09T15:22:50.710Z,39.40
2023-05-09T15:27:48.219Z,39.40
2023-05-09T15:30:15.743Z,39.60
2023-05-09T15:35:14.343Z,39.50
2023-05-09T15:37:45.430Z,39.70
2023-05-09T15:40:13.626Z,39.50
2023-05-09T15:42:41.136Z,39.60
2023-05-09T15:45:08.953Z,39.60
2023-05-09T15:47:36.341Z,39.50
2023-05-09T15:50:03.545Z,39.70
2023-05-09T15:52:31.281Z,39.60
2023-05-09T15:54:58.950Z,39.60
2023-05-09T15:57:27.696Z,39.70
2023-05-09T15:59:56.090Z,39.70
2023-05-09T16:02:24.326Z,39.70
2023-05-09T16:04:51.665Z,39.80
2023-05-09T16:07:20.676Z,39.80
2023-05-09T16:09:48.093Z,39.80
2023-05-09T16:12:15.229Z,39.80
2023-05-09T16:14:42.428Z,40.30
2023-05-09T16:17:09.348Z,40.40
2023-05-09T16:19:36.527Z,40.40
2023-05-09T16:22:03.600Z,39.80
2023-05-09T16:24:32.025Z,39.90
2023-05-09T16:27:02.681Z,39.80
2023-05-09T16:29:30.002Z,40.10
2023-05-09T16:31:57.760Z,40.00
2023-05-09T16:34:25.339Z,40.00
2023-05-09T16:44:18.664Z,39.80
2023-05-09T16:49:15.571Z,39.90
2023-05-09T16:51:47.092Z,39.80
2023-05-09T16:54:14.888Z,39.80
2023-05-09T16:56:45.189Z,39.80
2023-05-09T16:59:13.058Z,40.00
2023-05-09T17:09:06.256Z,39.80
2023-05-09T17:11:36.558Z,40.00
2023-05-09T17:14:04.362Z,40.20
2023-05-09T17:16:38.141Z,40.10
2023-05-09T17:19:06.289Z,40.00
2023-05-09T17:21:33.210Z,40.60
2023-05-09T17:24:02.166Z,40.60
2023-05-09T17:26:31.304Z,40.10
2023-05-09T17:28:58.529Z,40.00
2023-05-09T17:31:25.578Z,40.70
2023-05-09T17:33:52.921Z,40.10
2023-05-09T17:36:23.052Z,40.60
2023-05-09T17:38:50.360Z,40.10
2023-05-09T17:41:18.491Z,40.10
2023-05-09T17:43:45.909Z,40.10
2023-05-09T17:46:15.138Z,40.60
2023-05-09T17:48:43.026Z,40.10
2023-05-09T17:51:10.744Z,40.10
2023-05-09T17:53:38.360Z,40.20
2023-05-09T17:56:05.993Z,40.10
2023-05-09T17:58:33.663Z,40.00
2023-05-09T18:01:00.918Z,40.20
2023-05-09T18:03:32.646Z,40.20
2023-05-09T18:06:03.785Z,40.10
2023-05-09T18:08:31.276Z,40.20
2023-05-09T18:10:59.283Z,40.20
2023-05-09T18:13:26.602Z,40.80
2023-05-09T18:15:57.046Z,40.70
2023-05-09T18:18:24.971Z,40.20
2023-05-09T18:20:52.687Z,40.10
2023-05-09T18:23:20.032Z,40.20
2023-05-09T18:25:49.816Z,40.20
2023-05-09T18:28:24.977Z,40.10
2023-05-09T18:30:54.798Z,40.30
2023-05-09T18:33:28.093Z,40.30
2023-05-09T18:35:55.958Z,40.10
2023-05-09T18:38:22.981Z,40.20
2023-05-09T18:40:52.635Z,40.80
2023-05-09T18:43:23.393Z,40.80
2023-05-09T18:45:52.180Z,40.80
2023-05-09T18:48:19.303Z,40.80
2023-05-09T18:50:47.612Z,40.20
2023-05-09T18:53:14.785Z,40.30
2023-05-09T18:55:43.208Z,40.30
2023-05-09T18:58:10.241Z,40.30
2023-05-09T19:00:39.000Z,40.30
2023-05-09T19:03:07.271Z,40.80
2023-05-09T19:05:37.704Z,40.30
2023-05-09T19:08:05.879Z,40.30
2023-05-09T19:10:33.810Z,40.30
2023-05-09T19:13:00.881Z,40.30
2023-05-09T19:15:33.552Z,40.30
2023-05-09T19:18:01.897Z,40.90
2023-05-09T19:20:29.912Z,40.40
2023-05-09T19:22:58.484Z,40.30
2023-05-09T19:25:26.470Z,40.40
2023-05-09T19:27:53.924Z,40.40
2023-05-09T19:30:21.563Z,40.90
2023-05-09T19:32:49.633Z,40.50
2023-05-09T19:35:18.023Z,40.40
2023-05-09T19:37:48.269Z,40.50
2023-05-09T19:40:16.312Z,40.30
2023-05-09T19:42:44.248Z,40.50
2023-05-09T19:45:12.697Z,40.50
2023-05-09T19:50:08.633Z,40.50
2023-05-09T19:52:37.251Z,40.50
2023-05-09T19:55:10.573Z,41.70
2023-05-09T19:57:37.956Z,40.50
2023-05-09T20:00:08.215Z,41.00
2023-05-09T20:02:36.779Z,40.40
2023-05-09T20:05:04.853Z,40.60
2023-05-09T20:07:31.894Z,40.60
2023-05-09T20:09:58.902Z,41.20
2023-05-09T20:12:27.304Z,41.20
2023-05-09T20:14:56.219Z,41.20
2023-05-09T20:17:23.979Z,40.60
2023-05-09T20:19:51.654Z,41.20
2023-05-09T20:22:19.194Z,40.60
2023-05-09T20:24:46.584Z,40.60
2023-05-09T20:27:14.487Z,40.70
2023-05-09T20:29:44.898Z,40.70
2023-05-09T20:32:12.934Z,41.20
2023-05-09T20:34:41.647Z,41.20
2023-05-09T20:39:37.128Z,40.70
2023-05-09T20:42:06.667Z,40.70
2023-05-09T20:44:40.836Z,40.70
2023-05-09T20:47:14.576Z,40.60
2023-05-09T20:49:41.614Z,41.30
2023-05-09T20:52:08.916Z,41.20
2023-05-09T20:54:36.581Z,40.70
2023-05-09T20:57:04.258Z,40.80
2023-05-09T20:59:31.680Z,41.30
2023-05-09T21:01:59.371Z,40.70
2023-05-09T21:04:26.673Z,40.80
2023-05-09T21:06:54.403Z,41.30
2023-05-09T21:09:22.019Z,40.80
2023-05-09T21:11:49.693Z,40.80
2023-05-09T21:14:17.327Z,41.40
2023-05-09T21:16:46.046Z,40.80
2023-05-09T21:21:41.610Z,40.80
2023-05-09T21:24:10.462Z,40.80
2023-05-09T21:26:38.169Z,40.80
2023-05-09T21:29:07.264Z,40.70
2023-05-09T21:31:35.052Z,40.90
2023-05-09T21:34:03.093Z,41.40
2023-05-09T21:36:31.310Z,40.90
2023-05-09T21:39:07.162Z,40.90
2023-05-09T21:41:35.513Z,40.90
2023-05-09T21:44:03.285Z,40.80
2023-05-09T21:46:34.787Z,40.90
2023-05-09T21:49:04.807Z,40.80
2023-05-09T21:51:33.693Z,40.90
2023-05-09T21:54:01.382Z,41.40
2023-05-09T21:56:28.702Z,41.00
2023-05-09T22:01:23.777Z,40.90
2023-05-09T22:03:51.825Z,41.00
2023-05-09T22:06:18.928Z,40.90
2023-05-09T22:08:46.161Z,41.40
2023-05-09T22:11:14.783Z,40.90
2023-05-09T22:13:42.738Z,41.50
2023-05-09T22:16:10.189Z,41.00
2023-05-09T22:18:37.979Z,41.00
2023-05-09T22:21:05.608Z,41.50
2023-05-09T22:23:32.538Z,42.10
2023-05-09T22:28:27.995Z,41.00
2023-05-09T22:30:55.025Z,40.90
2023-05-09T22:33:22.873Z,41.50
2023-05-09T22:35:49.951Z,41.00
2023-05-09T22:38:17.513Z,40.90
2023-05-09T22:40:44.678Z,41.00
2023-05-09T22:43:19.865Z,41.00
2023-05-09T22:45:47.121Z,41.00
2023-05-09T22:48:14.125Z,40.90
2023-05-09T22:50:42.083Z,41.60
2023-05-09T22:53:09.348Z,41.10
2023-05-09T22:55:39.480Z,41.60
2023-05-09T22:58:06.444Z,41.00
2023-05-09T23:00:36.882Z,41.00
2023-05-09T23:03:04.781Z,41.10
2023-05-09T23:05:31.917Z,41.00
2023-05-09T23:07:59.265Z,41.00
2023-05-09T23:10:27.716Z,41.00
2023-05-09T23:12:55.540Z,41.10
2023-05-09T23:15:22.893Z,41.60
2023-05-09T23:17:50.864Z,41.60
2023-05-09T23:20:18.858Z,41.10
2023-05-09T23:22:46.097Z,41.10
2023-05-09T23:25:14.438Z,41.00
2023-05-09T23:27:42.604Z,41.10
2023-05-09T23:30:11.184Z,41.10
2023-05-09T23:32:38.481Z,41.60
2023-05-09T23:35:07.536Z,41.00
2023-05-09T23:37:38.645Z,41.10
2023-05-09T23:40:07.969Z,41.20
2023-05-09T23:42:35.674Z,41.10
2023-05-09T23:45:04.975Z,41.60
2023-05-09T23:47:33.349Z,41.70
2023-05-09T23:50:02.237Z,41.10
2023-05-09T23:54:58.611Z,41.10
2023-05-09T23:57:27.164Z,41.10
2023-05-09T23:59:54.691Z,41.10
